Time;durP1;ratioP1;P1;durP2;ratioP2;P2;SDS_P1;SDS_P2;PMS_P1;PMS_P2;Temp;Humidity;BMP_temperature;BMP_pressure;BME280_temperature;BME280_humidity;BME280_pressure;Samples;Min_cycle;Max_cycle;Signal;HPM_P1;HPM_P2
2022/11/08 00:01:58;;;;;;;;;;;18.50;52.20;;;;;;5064039;28;20374;-88
2022/11/08 00:04:24;;;;;;;;;;;18.40;52.30;;;;;;5052132;28;20411;-88
2022/11/08 00:15:03;;;;;;;;;;;18.20;52.80;;;;;;5070292;28;19919;-84
2022/11/08 00:17:29;;;;;;;;;;;18.20;52.80;;;;;;5069044;28;19923;-87
2022/11/08 00:19:55;;;;;;;;;;;18.10;52.90;;;;;;5056649;28;19913;-86
2022/11/08 00:22:20;;;;;;;;;;;18.10;52.80;;;;;;5050565;28;20016;-86
2022/11/08 00:24:46;;;;;;;;;;;18.00;52.80;;;;;;5059288;28;19912;-87
2022/11/08 00:27:15;;;;;;;;;;;18.00;53.20;;;;;;5069705;28;19958;-88
2022/11/08 00:29:41;;;;;;;;;;;17.90;53.20;;;;;;5069352;28;19947;-87
2022/11/08 00:32:09;;;;;;;;;;;17.80;53.50;;;;;;5065455;28;19960;-87
2022/11/08 00:34:35;;;;;;;;;;;17.80;53.50;;;;;;5070375;28;20029;-89
2022/11/08 00:37:01;;;;;;;;;;;17.80;53.50;;;;;;5069584;28;19968;-88
2022/11/08 00:39:26;;;;;;;;;;;17.70;53.60;;;;;;5054094;28;20003;-86
2022/11/08 00:41:52;;;;;;;;;;;17.70;53.70;;;;;;5055916;28;19979;-88
2022/11/08 00:44:18;;;;;;;;;;;17.70;53.60;;;;;;5062019;28;19909;-88
2022/11/08 00:46:43;;;;;;;;;;;17.70;53.70;;;;;;5053848;28;20036;-86
2022/11/08 00:49:09;;;;;;;;;;;17.60;53.80;;;;;;5063856;28;19909;-88
2022/11/08 00:51:36;;;;;;;;;;;17.50;54.20;;;;;;5060534;28;20361;-88
2022/11/08 00:54:02;;;;;;;;;;;17.50;54.60;;;;;;5072420;28;19908;-87
2022/11/08 00:56:27;;;;;;;;;;;17.50;54.60;;;;;;5063652;28;19925;-87
2022/11/08 00:58:53;;;;;;;;;;;17.50;54.60;;;;;;5063263;28;19980;-87
2022/11/08 01:01:19;;;;;;;;;;;17.50;54.60;;;;;;5066435;28;19917;-89
2022/11/08 01:03:46;;;;;;;;;;;17.40;54.80;;;;;;5072201;28;19909;-89
2022/11/08 01:06:12;;;;;;;;;;;17.40;54.70;;;;;;5072027;28;19916;-88
2022/11/08 01:08:38;;;;;;;;;;;17.40;54.60;;;;;;5073042;28;19915;-87
2022/11/08 01:11:05;;;;;;;;;;;17.40;54.80;;;;;;5073422;28;20279;-88
2022/11/08 01:13:31;;;;;;;;;;;17.30;54.90;;;;;;5071252;28;19917;-88
2022/11/08 01:15:57;;;;;;;;;;;17.30;55.10;;;;;;5061935;28;19987;-89
2022/11/08 01:18:23;;;;;;;;;;;17.30;54.90;;;;;;5071978;28;20378;-88
2022/11/08 01:20:49;;;;;;;;;;;17.30;54.90;;;;;;5063972;28;19912;-88
2022/11/08 01:23:15;;;;;;;;;;;17.20;55.20;;;;;;5065468;28;19924;-86
2022/11/08 01:25:42;;;;;;;;;;;17.20;55.10;;;;;;5071598;28;19909;-88
2022/11/08 01:28:08;;;;;;;;;;;17.20;55.20;;;;;;5057327;28;19917;-88
2022/11/08 01:30:35;;;;;;;;;;;17.20;55.50;;;;;;5065657;28;19916;-87
2022/11/08 01:33:01;;;;;;;;;;;17.20;55.30;;;;;;5065766;28;19936;-86
2022/11/08 01:35:27;;;;;;;;;;;17.10;55.40;;;;;;5058596;28;20402;-85
2022/11/08 01:37:52;;;;;;;;;;;17.10;55.40;;;;;;5069703;28;19978;-90
2022/11/08 01:40:18;;;;;;;;;;;17.10;55.40;;;;;;5081537;28;19948;-88
2022/11/08 01:42:43;;;;;;;;;;;17.00;55.40;;;;;;5082859;28;19928;-88
2022/11/08 01:45:10;;;;;;;;;;;17.10;55.30;;;;;;5070984;28;19909;-89
2022/11/08 01:47:36;;;;;;;;;;;16.90;55.90;;;;;;5065508;28;19917;-88
2022/11/08 01:50:04;;;;;;;;;;;17.00;55.90;;;;;;5066320;28;19920;-86
2022/11/08 01:52:44;;;;;;;;;;;17.00;56.00;;;;;;5059726;28;19920;-88
2022/11/08 01:55:26;;;;;;;;;;;16.90;56.10;;;;;;5069179;28;19931;-88
2022/11/08 01:57:58;;;;;;;;;;;16.80;56.50;;;;;;5071832;28;19956;-88
2022/11/08 02:00:24;;;;;;;;;;;16.90;56.30;;;;;;5072466;28;19912;-88
2022/11/08 02:02:59;;;;;;;;;;;16.90;56.30;;;;;;5072423;28;19923;-88
2022/11/08 02:05:26;;;;;;;;;;;16.90;56.30;;;;;;5070646;28;19909;-87
2022/11/08 02:08:02;;;;;;;;;;;16.90;56.30;;;;;;5072473;28;19956;-88
2022/11/08 02:10:33;;;;;;;;;;;16.80;56.10;;;;;;5070456;28;19955;-88
2022/11/08 02:12:58;;;;;;;;;;;16.80;56.10;;;;;;5071979;28;19960;-88
2022/11/08 02:15:24;;;;;;;;;;;16.80;56.00;;;;;;5071725;28;20004;-89
2022/11/08 02:17:50;;;;;;;;;;;16.80;56.20;;;;;;5073503;28;20054;-89
2022/11/08 02:20:15;;;;;;;;;;;16.80;56.30;;;;;;5073761;28;19948;-88
2022/11/08 02:22:46;;;;;;;;;;;16.80;56.40;;;;;;5071985;28;20064;-89
2022/11/08 02:25:12;;;;;;;;;;;16.80;56.30;;;;;;5072218;28;20000;-88
2022/11/08 02:27:37;;;;;;;;;;;16.70;56.40;;;;;;5070854;28;20007;-88
2022/11/08 02:30:03;;;;;;;;;;;16.70;56.20;;;;;;5070587;28;19970;-88
2022/11/08 02:32:36;;;;;;;;;;;16.70;56.70;;;;;;5070236;28;19924;-88
2022/11/08 02:35:05;;;;;;;;;;;16.70;56.60;;;;;;5070601;28;19909;-86
2022/11/08 02:37:30;;;;;;;;;;;16.70;56.80;;;;;;5060860;28;19966;-86
2022/11/08 02:39:56;;;;;;;;;;;16.70;56.80;;;;;;5068352;28;19924;-88
2022/11/08 02:42:22;;;;;;;;;;;16.70;56.70;;;;;;5066603;28;19925;-88
2022/11/08 02:44:48;;;;;;;;;;;16.70;56.80;;;;;;5057100;28;19912;-88
2022/11/08 02:47:13;;;;;;;;;;;16.70;56.60;;;;;;5056198;28;19920;-87
2022/11/08 02:49:39;;;;;;;;;;;16.80;56.60;;;;;;5061521;28;19932;-85
2022/11/08 02:52:05;;;;;;;;;;;16.80;56.70;;;;;;5051487;28;19970;-88
2022/11/08 02:54:30;;;;;;;;;;;16.80;56.60;;;;;;5048981;28;19927;-88
2022/11/08 02:56:56;;;;;;;;;;;16.90;56.50;;;;;;5063674;28;19924;-87
2022/11/08 02:59:21;;;;;;;;;;;16.90;56.70;;;;;;5062164;28;20015;-87
2022/11/08 03:01:47;;;;;;;;;;;17.10;56.40;;;;;;5059706;28;20299;-87
2022/11/08 03:04:12;;;;;;;;;;;17.20;56.10;;;;;;5055495;28;20828;-88
2022/11/08 03:06:37;;;;;;;;;;;17.20;55.90;;;;;;5057316;28;19917;-89
2022/11/08 03:09:03;;;;;;;;;;;17.30;55.70;;;;;;5063827;28;19920;-88
2022/11/08 03:11:29;;;;;;;;;;;17.40;55.60;;;;;;5069302;28;19928;-87
2022/11/08 03:13:55;;;;;;;;;;;17.50;55.40;;;;;;5066733;28;20046;-87
2022/11/08 03:16:21;;;;;;;;;;;17.50;55.30;;;;;;5048986;28;19955;-88
2022/11/08 03:18:46;;;;;;;;;;;17.60;55.10;;;;;;5054133;28;19916;-87
2022/11/08 03:21:12;;;;;;;;;;;17.70;55.00;;;;;;5062110;28;19917;-87
2022/11/08 03:23:37;;;;;;;;;;;17.70;54.80;;;;;;5061183;28;19948;-85
2022/11/08 03:26:03;;;;;;;;;;;17.80;54.60;;;;;;5066689;28;19925;-87
2022/11/08 03:28:29;;;;;;;;;;;17.80;54.40;;;;;;5051841;28;19919;-87
2022/11/08 03:30:55;;;;;;;;;;;17.80;54.30;;;;;;5062838;28;19995;-86
2022/11/08 03:33:20;;;;;;;;;;;17.90;54.00;;;;;;5059899;28;19932;-87
2022/11/08 03:35:47;;;;;;;;;;;17.90;53.80;;;;;;5066644;28;19927;-88
2022/11/08 03:38:13;;;;;;;;;;;17.80;53.80;;;;;;5052940;28;19996;-86
2022/11/08 03:40:38;;;;;;;;;;;17.80;53.70;;;;;;5067311;28;19955;-88
2022/11/08 03:43:04;;;;;;;;;;;17.80;53.80;;;;;;5061325;28;19990;-88
2022/11/08 03:45:29;;;;;;;;;;;17.80;53.70;;;;;;5059612;28;19966;-88
2022/11/08 03:47:55;;;;;;;;;;;17.80;53.70;;;;;;5058582;28;19917;-87
2022/11/08 03:50:21;;;;;;;;;;;17.80;53.70;;;;;;5068104;28;19912;-87
2022/11/08 03:52:48;;;;;;;;;;;17.90;53.50;;;;;;5056058;28;20371;-88
2022/11/08 03:55:14;;;;;;;;;;;18.00;53.50;;;;;;5065473;28;19916;-88
2022/11/08 03:57:40;;;;;;;;;;;18.00;53.30;;;;;;5063727;28;19943;-87
2022/11/08 04:00:06;;;;;;;;;;;18.10;53.20;;;;;;5051396;28;20447;-87
2022/11/08 04:02:32;;;;;;;;;;;18.20;53.10;;;;;;5049270;28;20594;-88
2022/11/08 04:04:58;;;;;;;;;;;18.20;53.10;;;;;;5065012;28;20011;-85
2022/11/08 04:07:23;;;;;;;;;;;18.20;53.00;;;;;;5071241;28;20461;-87
2022/11/08 04:09:49;;;;;;;;;;;18.30;52.80;;;;;;5070579;28;19991;-85
2022/11/08 04:15:14;;;;;;;;;;;18.30;52.60;;;;;;5065533;28;19938;-87
2022/11/08 04:23:09;;;;;;;;;;;18.30;52.40;;;;;;5055816;28;19924;-88
2022/11/08 04:25:34;;;;;;;;;;;18.20;52.40;;;;;;5055638;28;19913;-85
2022/11/08 04:28:00;;;;;;;;;;;18.30;52.30;;;;;;5075228;28;19917;-86
2022/11/08 04:30:26;;;;;;;;;;;18.20;52.10;;;;;;5073152;28;20405;-89
2022/11/08 04:32:51;;;;;;;;;;;18.20;51.90;;;;;;5065285;28;19917;-90
2022/11/08 04:35:17;;;;;;;;;;;18.20;51.80;;;;;;5074339;28;19916;-88
2022/11/08 04:37:42;;;;;;;;;;;18.10;51.70;;;;;;5074112;28;19927;-86
2022/11/08 04:40:08;;;;;;;;;;;18.00;51.70;;;;;;5069172;28;19944;-88
2022/11/08 04:42:34;;;;;;;;;;;17.90;51.60;;;;;;5061975;28;20021;-88
2022/11/08 04:45:00;;;;;;;;;;;17.80;51.60;;;;;;5074283;28;19909;-88
2022/11/08 04:47:26;;;;;;;;;;;17.70;51.70;;;;;;5074294;28;19963;-88
2022/11/08 04:49:53;;;;;;;;;;;17.50;51.70;;;;;;5072556;28;20011;-87
2022/11/08 04:52:19;;;;;;;;;;;17.50;51.90;;;;;;5068344;28;19920;-88
2022/11/08 04:54:45;;;;;;;;;;;17.30;52.00;;;;;;5052534;28;19919;-87
2022/11/08 04:57:10;;;;;;;;;;;17.30;52.10;;;;;;5053037;28;19931;-87
2022/11/08 04:59:36;;;;;;;;;;;17.30;52.30;;;;;;5052590;28;19909;-88
2022/11/08 05:02:02;;;;;;;;;;;17.20;52.50;;;;;;5052368;28;19917;-88
2022/11/08 05:04:28;;;;;;;;;;;17.10;52.80;;;;;;5058396;28;19919;-86
2022/11/08 05:06:53;;;;;;;;;;;17.10;52.80;;;;;;5069614;28;20007;-86
2022/11/08 05:09:19;;;;;;;;;;;17.00;52.60;;;;;;5053125;28;19916;-87
2022/11/08 05:11:45;;;;;;;;;;;17.00;52.60;;;;;;5056648;28;19931;-87
2022/11/08 05:14:10;;;;;;;;;;;16.90;52.70;;;;;;5059488;28;19909;-84
2022/11/08 05:16:36;;;;;;;;;;;16.80;52.90;;;;;;5069222;28;19931;-88
2022/11/08 05:19:01;;;;;;;;;;;16.80;53.10;;;;;;5071450;28;19916;-86
2022/11/08 05:24:31;;;;;;;;;;;16.70;53.20;;;;;;5062887;28;19919;-88
2022/11/08 05:26:57;;;;;;;;;;;16.60;53.40;;;;;;5070141;28;19920;-85
2022/11/08 05:29:22;;;;;;;;;;;16.50;53.40;;;;;;5060712;28;19917;-88
2022/11/08 05:31:52;;;;;;;;;;;16.40;53.50;;;;;;5059748;28;21494;-85
2022/11/08 05:34:18;;;;;;;;;;;16.40;53.70;;;;;;5060415;28;20315;-87
2022/11/08 05:36:43;;;;;;;;;;;16.30;53.80;;;;;;5063665;28;19951;-86
2022/11/08 05:39:09;;;;;;;;;;;16.30;53.70;;;;;;5057485;28;20027;-89
2022/11/08 05:41:34;;;;;;;;;;;16.30;53.70;;;;;;5066508;28;19924;-89
2022/11/08 05:44:00;;;;;;;;;;;16.20;53.90;;;;;;5059085;28;19913;-86
2022/11/08 05:46:26;;;;;;;;;;;16.10;53.90;;;;;;5063290;28;19921;-86
2022/11/08 05:48:51;;;;;;;;;;;16.00;54.30;;;;;;5063747;28;20412;-86
2022/11/08 05:51:17;;;;;;;;;;;16.00;54.40;;;;;;5062925;28;19919;-88
2022/11/08 05:53:43;;;;;;;;;;;16.00;54.50;;;;;;5069333;28;19987;-89
2022/11/08 05:56:08;;;;;;;;;;;16.00;54.40;;;;;;5069145;28;19927;-86
2022/11/08 05:58:34;;;;;;;;;;;15.90;54.30;;;;;;5063159;28;19920;-86
2022/11/08 06:01:00;;;;;;;;;;;15.90;54.40;;;;;;5062914;28;19913;-87
2022/11/08 06:03:26;;;;;;;;;;;15.80;54.90;;;;;;5066348;28;20010;-88
2022/11/08 06:05:51;;;;;;;;;;;15.80;54.90;;;;;;5060640;28;20448;-87
2022/11/08 06:08:17;;;;;;;;;;;15.80;55.00;;;;;;5070163;28;19916;-87
2022/11/08 06:10:42;;;;;;;;;;;15.80;54.90;;;;;;5067452;28;20018;-88
2022/11/08 06:13:08;;;;;;;;;;;15.70;54.80;;;;;;5055086;28;19917;-89
2022/11/08 06:15:33;;;;;;;;;;;15.70;54.80;;;;;;5056916;28;20007;-85
2022/11/08 06:18:05;;;;;;;;;;;15.70;55.00;;;;;;5068374;28;19919;-88
2022/11/08 06:20:31;;;;;;;;;;;15.60;54.90;;;;;;5068084;28;19928;-84
2022/11/08 06:22:56;;;;;;;;;;;15.60;54.80;;;;;;5073537;28;19912;-89
2022/11/08 06:25:25;;;;;;;;;;;15.60;54.90;;;;;;5072630;28;19956;-89
2022/11/08 06:27:50;;;;;;;;;;;15.50;55.10;;;;;;5072388;28;20328;-90
2022/11/08 06:30:16;;;;;;;;;;;15.50;55.20;;;;;;5076019;28;19916;-87
2022/11/08 06:32:42;;;;;;;;;;;15.50;55.40;;;;;;5079908;28;20011;-89
2022/11/08 06:35:10;;;;;;;;;;;15.50;55.30;;;;;;5073239;28;20015;-88
2022/11/08 06:37:36;;;;;;;;;;;15.50;55.60;;;;;;5072455;28;20565;-87
2022/11/08 06:40:01;;;;;;;;;;;15.50;55.90;;;;;;5073709;28;19917;-86
2022/11/08 06:42:27;;;;;;;;;;;15.50;56.00;;;;;;5072712;28;19908;-87
2022/11/08 06:44:53;;;;;;;;;;;15.50;55.70;;;;;;5065013;28;19916;-84
2022/11/08 06:47:26;;;;;;;;;;;15.50;55.80;;;;;;5051111;28;20010;-87
2022/11/08 06:49:51;;;;;;;;;;;15.50;56.30;;;;;;5060485;28;19916;-88
2022/11/08 06:52:16;;;;;;;;;;;15.60;56.40;;;;;;5065674;28;19961;-88
2022/11/08 06:54:42;;;;;;;;;;;15.60;56.90;;;;;;5071041;28;19927;-88
2022/11/08 06:57:08;;;;;;;;;;;15.80;56.60;;;;;;5068948;28;19960;-88
2022/11/08 06:59:33;;;;;;;;;;;15.80;56.60;;;;;;5070697;28;20005;-88
2022/11/08 07:01:59;;;;;;;;;;;15.80;56.50;;;;;;5073509;28;20421;-88
2022/11/08 07:04:24;;;;;;;;;;;15.90;56.70;;;;;;5091173;28;19922;-87
2022/11/08 07:06:50;;;;;;;;;;;15.90;56.50;;;;;;5089911;28;19908;-89
2022/11/08 07:09:16;;;;;;;;;;;16.00;56.40;;;;;;5085359;28;19916;-89
2022/11/08 07:11:42;;;;;;;;;;;16.00;56.40;;;;;;5071552;28;20314;-89
2022/11/08 07:14:07;;;;;;;;;;;16.20;57.00;;;;;;5071307;28;19923;-88
2022/11/08 07:16:33;;;;;;;;;;;16.30;57.20;;;;;;5071108;28;19917;-88
2022/11/08 07:19:04;;;;;;;;;;;16.70;57.10;;;;;;5076210;28;20287;-88
2022/11/08 07:21:30;;;;;;;;;;;16.90;56.50;;;;;;5060031;28;19915;-87
2022/11/08 07:23:55;;;;;;;;;;;17.20;55.90;;;;;;5069825;28;19917;-89
2022/11/08 07:26:21;;;;;;;;;;;17.40;55.20;;;;;;5071713;28;19923;-86
2022/11/08 07:28:49;;;;;;;;;;;17.70;54.80;;;;;;5068656;28;20283;-86
2022/11/08 07:31:15;;;;;;;;;;;17.80;53.80;;;;;;5069750;28;19915;-87
2022/11/08 07:33:41;;;;;;;;;;;18.00;53.20;;;;;;5069426;28;19916;-85
2022/11/08 07:36:08;;;;;;;;;;;18.10;53.00;;;;;;5067118;28;19970;-87
2022/11/08 07:38:33;;;;;;;;;;;18.20;52.60;;;;;;5062077;28;20043;-85
2022/11/08 07:41:00;;;;;;;;;;;18.40;52.60;;;;;;5067570;28;20015;-88
2022/11/08 07:43:26;;;;;;;;;;;18.80;53.20;;;;;;5066301;28;19967;-89
2022/11/08 07:45:56;;;;;;;;;;;19.20;52.60;;;;;;5052391;28;20091;-90
2022/11/08 07:48:22;;;;;;;;;;;19.60;51.80;;;;;;5053341;28;21021;-88
2022/11/08 07:50:48;;;;;;;;;;;19.90;50.40;;;;;;5072171;28;19923;-88
2022/11/08 07:53:14;;;;;;;;;;;20.20;49.30;;;;;;5072873;28;20011;-89
2022/11/08 07:55:39;;;;;;;;;;;20.60;48.50;;;;;;5073068;28;19920;-89
2022/11/08 07:58:05;;;;;;;;;;;20.80;47.50;;;;;;5068811;28;19922;-89
2022/11/08 08:00:32;;;;;;;;;;;21.10;46.90;;;;;;5067219;28;20577;-88
2022/11/08 08:03:00;;;;;;;;;;;21.40;46.70;;;;;;5069577;28;20406;-88
2022/11/08 08:05:27;;;;;;;;;;;21.70;46.00;;;;;;5069324;28;19920;-89
2022/11/08 08:07:55;;;;;;;;;;;21.90;45.20;;;;;;5068414;28;20011;-86
2022/11/08 08:10:21;;;;;;;;;;;22.10;44.40;;;;;;5069338;28;19965;-89
2022/11/08 08:12:46;;;;;;;;;;;22.20;43.90;;;;;;5069490;28;19913;-89
2022/11/08 08:15:12;;;;;;;;;;;22.20;43.30;;;;;;5068563;28;19923;-88
2022/11/08 08:17:37;;;;;;;;;;;22.30;43.60;;;;;;5069521;28;20414;-88
2022/11/08 08:20:03;;;;;;;;;;;22.40;43.20;;;;;;5067525;28;19916;-86
2022/11/08 08:22:29;;;;;;;;;;;22.50;42.70;;;;;;5069363;28;19917;-85
2022/11/08 08:24:55;;;;;;;;;;;22.40;41.90;;;;;;5069081;28;20370;-89
2022/11/08 08:27:20;;;;;;;;;;;22.50;42.20;;;;;;5068220;28;19974;-89
2022/11/08 08:29:46;;;;;;;;;;;22.70;41.90;;;;;;5069112;28;19920;-89
2022/11/08 08:32:11;;;;;;;;;;;22.80;41.50;;;;;;5055876;28;19948;-88
2022/11/08 08:34:37;;;;;;;;;;;23.00;41.10;;;;;;5068255;28;19920;-88
2022/11/08 08:37:03;;;;;;;;;;;23.20;40.20;;;;;;5067645;28;20334;-89
2022/11/08 08:39:28;;;;;;;;;;;23.30;39.90;;;;;;5066098;28;19954;-88
2022/11/08 08:41:54;;;;;;;;;;;23.50;40.00;;;;;;5068640;28;19917;-87
2022/11/08 08:44:20;;;;;;;;;;;23.70;39.00;;;;;;5064427;28;19984;-87
2022/11/08 08:46:45;;;;;;;;;;;23.80;38.40;;;;;;5049576;28;20003;-89
2022/11/08 08:49:11;;;;;;;;;;;23.80;37.90;;;;;;5047280;28;19928;-88
2022/11/08 08:51:36;;;;;;;;;;;23.80;37.60;;;;;;5048024;28;19920;-88
2022/11/08 08:54:02;;;;;;;;;;;23.90;37.30;;;;;;5049540;28;19920;-89
2022/11/08 08:56:27;;;;;;;;;;;24.00;37.10;;;;;;5049969;28;19952;-88
2022/11/08 08:58:53;;;;;;;;;;;24.20;37.50;;;;;;5047710;28;19920;-88
2022/11/08 09:01:19;;;;;;;;;;;24.40;37.40;;;;;;5047614;28;20059;-88
2022/11/08 09:03:44;;;;;;;;;;;24.50;36.90;;;;;;5048343;28;19925;-90
2022/11/08 09:06:10;;;;;;;;;;;24.50;36.20;;;;;;5051745;28;20011;-86
2022/11/08 09:08:36;;;;;;;;;;;24.60;35.90;;;;;;5051470;28;19947;-90
2022/11/08 09:11:01;;;;;;;;;;;24.70;36.00;;;;;;5060378;28;19913;-90
2022/11/08 09:13:29;;;;;;;;;;;24.80;35.80;;;;;;5071083;28;19920;-88
2022/11/08 09:15:55;;;;;;;;;;;25.00;36.10;;;;;;5070857;28;19991;-85
2022/11/08 09:18:21;;;;;;;;;;;25.10;34.90;;;;;;5071617;28;20007;-88
2022/11/08 09:20:46;;;;;;;;;;;25.40;34.80;;;;;;5072439;28;19966;-88
2022/11/08 09:23:12;;;;;;;;;;;25.60;34.50;;;;;;5070596;28;19965;-89
2022/11/08 09:25:38;;;;;;;;;;;25.80;34.00;;;;;;5069605;28;19926;-86
2022/11/08 09:28:04;;;;;;;;;;;26.00;33.70;;;;;;5071443;28;19916;-87
2022/11/08 09:30:29;;;;;;;;;;;26.30;33.70;;;;;;5067824;28;19908;-88
2022/11/08 09:32:55;;;;;;;;;;;26.60;33.30;;;;;;5050626;28;19934;-85
2022/11/08 09:35:21;;;;;;;;;;;26.80;32.50;;;;;;5071667;28;19977;-88
2022/11/08 09:37:46;;;;;;;;;;;26.90;31.90;;;;;;5072273;28;20015;-86
2022/11/08 09:40:27;;;;;;;;;;;27.10;31.60;;;;;;5072181;28;19920;-89
2022/11/08 09:43:00;;;;;;;;;;;27.30;31.80;;;;;;5070298;28;19918;-87
2022/11/08 09:45:33;;;;;;;;;;;27.30;31.20;;;;;;5059133;28;19928;-87
2022/11/08 09:48:01;;;;;;;;;;;27.30;30.40;;;;;;5048786;28;20230;-86
2022/11/08 09:50:33;;;;;;;;;;;27.20;30.40;;;;;;5049972;28;19927;-88
2022/11/08 09:53:21;;;;;;;;;;;27.30;30.30;;;;;;5052286;28;19913;-89
2022/11/08 09:55:51;;;;;;;;;;;27.30;30.50;;;;;;5050104;28;19925;-88
2022/11/08 09:58:20;;;;;;;;;;;27.20;30.30;;;;;;5064596;28;19971;-90
2022/11/08 10:00:49;;;;;;;;;;;27.20;30.80;;;;;;5072238;28;19965;-89
2022/11/08 10:03:15;;;;;;;;;;;27.30;30.70;;;;;;5069114;28;19962;-89
2022/11/08 10:05:42;;;;;;;;;;;27.30;30.50;;;;;;5070884;28;19931;-89
2022/11/08 10:08:47;;;;;;;;;;;27.30;30.10;;;;;;5069200;28;20005;-87
2022/11/08 10:11:36;;;;;;;;;;;27.20;30.00;;;;;;5046883;28;19928;-88
2022/11/08 10:14:11;;;;;;;;;;;27.10;30.10;;;;;;5044949;28;19940;-89
2022/11/08 10:16:54;;;;;;;;;;;26.80;29.80;;;;;;5048300;28;19998;-88
2022/11/08 10:19:41;;;;;;;;;;;26.80;30.20;;;;;;5083799;28;20229;-87
2022/11/08 10:22:17;;;;;;;;;;;26.60;30.30;;;;;;5080506;28;19958;-88
2022/11/08 10:24:53;;;;;;;;;;;26.60;30.50;;;;;;5072408;28;19955;-88
2022/11/08 10:27:26;;;;;;;;;;;26.60;30.70;;;;;;5077355;28;19924;-88
2022/11/08 10:29:55;;;;;;;;;;;26.60;30.60;;;;;;5081022;28;19912;-89
2022/11/08 10:32:21;;;;;;;;;;;26.50;30.60;;;;;;5077217;28;19916;-89
2022/11/08 10:35:07;;;;;;;;;;;26.60;30.80;;;;;;5073063;28;19934;-89
2022/11/08 10:37:34;;;;;;;;;;;26.50;30.60;;;;;;5072481;28;19928;-89
2022/11/08 10:40:04;;;;;;;;;;;26.30;30.70;;;;;;5064161;28;20367;-88
2022/11/08 10:42:53;;;;;;;;;;;26.20;30.80;;;;;;5066350;28;19971;-88
2022/11/08 10:45:20;;;;;;;;;;;26.20;30.90;;;;;;5027722;28;19919;-89
2022/11/08 10:47:46;;;;;;;;;;;26.10;31.00;;;;;;5049885;28;19928;-88
2022/11/08 10:50:22;;;;;;;;;;;26.00;30.90;;;;;;5057038;28;19913;-87
2022/11/08 10:52:53;;;;;;;;;;;26.00;31.00;;;;;;5068782;28;19970;-90
2022/11/08 10:55:39;;;;;;;;;;;26.10;31.20;;;;;;5070364;28;20561;-89
2022/11/08 10:58:24;;;;;;;;;;;26.30;31.10;;;;;;5068919;28;19959;-87
2022/11/08 11:00:59;;;;;;;;;;;26.30;30.90;;;;;;5069824;28;19913;-88
2022/11/08 11:03:27;;;;;;;;;;;26.30;30.70;;;;;;5073097;28;19924;-88
2022/11/08 11:06:03;;;;;;;;;;;26.30;30.70;;;;;;5076700;28;20391;-90
2022/11/08 11:08:29;;;;;;;;;;;26.30;30.70;;;;;;5069955;28;19918;-87
2022/11/08 11:10:55;;;;;;;;;;;26.20;30.70;;;;;;5072136;28;19919;-88
2022/11/08 11:13:25;;;;;;;;;;;26.20;30.70;;;;;;5067271;28;20490;-86
2022/11/08 11:16:02;;;;;;;;;;;26.20;30.80;;;;;;5069063;28;19920;-88
2022/11/08 11:18:32;;;;;;;;;;;26.20;30.80;;;;;;5068610;28;19960;-88
2022/11/08 11:21:03;;;;;;;;;;;26.20;30.70;;;;;;5066808;28;19913;-87
2022/11/08 11:23:33;;;;;;;;;;;26.10;30.70;;;;;;5065231;28;19920;-86
2022/11/08 11:25:59;;;;;;;;;;;26.10;30.70;;;;;;5067321;28;19939;-86
2022/11/08 11:28:24;;;;;;;;;;;26.20;30.80;;;;;;5066166;28;19927;-89
2022/11/08 11:30:58;;;;;;;;;;;26.20;30.60;;;;;;5064561;28;19919;-89
2022/11/08 11:33:25;;;;;;;;;;;26.20;30.50;;;;;;5054865;28;19978;-89
2022/11/08 11:35:54;;;;;;;;;;;26.30;30.50;;;;;;5073985;28;20435;-89
2022/11/08 11:38:47;;;;;;;;;;;26.40;30.70;;;;;;5067840;28;19921;-86
2022/11/08 11:41:45;;;;;;;;;;;26.40;30.60;;;;;;5068495;28;19912;-88
2022/11/08 11:44:27;;;;;;;;;;;26.30;30.40;;;;;;5034425;28;19932;-86
2022/11/08 11:46:57;;;;;;;;;;;26.10;30.40;;;;;;5049414;28;19913;-89
2022/11/08 11:49:22;;;;;;;;;;;26.10;30.70;;;;;;5047659;28;19921;-88
2022/11/08 11:51:51;;;;;;;;;;;26.10;30.80;;;;;;5049455;28;19931;-88
2022/11/08 11:54:17;;;;;;;;;;;26.00;30.90;;;;;;5048073;28;19975;-90
2022/11/08 11:56:58;;;;;;;;;;;25.90;30.90;;;;;;5047590;28;19978;-90
2022/11/08 11:59:30;;;;;;;;;;;25.70;31.00;;;;;;5049325;28;20343;-91
2022/11/08 12:02:01;;;;;;;;;;;25.50;31.20;;;;;;5049655;28;19917;-89
2022/11/08 12:04:46;;;;;;;;;;;25.40;31.40;;;;;;5049859;28;19928;-88
2022/11/08 12:07:22;;;;;;;;;;;25.30;31.50;;;;;;5048019;28;19920;-90
2022/11/08 12:10:17;;;;;;;;;;;25.30;31.80;;;;;;5051602;28;19979;-89
2022/11/08 12:12:55;;;;;;;;;;;25.20;31.70;;;;;;5013205;28;20403;-89
2022/11/08 12:15:33;;;;;;;;;;;25.20;31.90;;;;;;5065328;28;20015;-87
2022/11/08 12:18:06;;;;;;;;;;;25.10;31.90;;;;;;5070168;28;19932;-90
2022/11/08 12:20:45;;;;;;;;;;;24.90;32.00;;;;;;5066377;28;19919;-88
2022/11/08 12:23:18;;;;;;;;;;;24.90;32.10;;;;;;5067991;28;20355;-90
2022/11/08 12:25:48;;;;;;;;;;;24.80;32.20;;;;;;5067670;28;19912;-90
2022/11/08 12:28:20;;;;;;;;;;;24.80;32.30;;;;;;5067347;28;20226;-88
2022/11/08 12:30:49;;;;;;;;;;;24.80;32.30;;;;;;5066217;28;19923;-88
2022/11/08 12:33:30;;;;;;;;;;;24.80;32.10;;;;;;5072146;28;19924;-88
2022/11/08 12:36:09;;;;;;;;;;;24.70;32.20;;;;;;5067567;28;19999;-89
2022/11/08 12:38:54;;;;;;;;;;;24.80;32.20;;;;;;5069711;28;19931;-88
2022/11/08 12:41:27;;;;;;;;;;;24.70;32.20;;;;;;5072283;28;20626;-87
2022/11/08 12:43:52;;;;;;;;;;;24.70;32.30;;;;;;5070380;28;19974;-87
2022/11/08 12:46:19;;;;;;;;;;;24.70;32.30;;;;;;5052922;28;20633;-86
2022/11/08 12:48:51;;;;;;;;;;;24.70;32.30;;;;;;5056047;28;19946;-90
2022/11/08 12:51:19;;;;;;;;;;;24.70;32.30;;;;;;5068513;28;20330;-87
2022/11/08 12:54:01;;;;;;;;;;;;;;;;;;;;;
2022/11/08 12:56:32;;;;;;;;;;;24.70;32.30;;;;;;5074091;28;19939;-87
2022/11/08 12:58:58;;;;;;;;;;;24.80;32.30;;;;;;5068702;28;19955;-86
2022/11/08 13:01:24;;;;;;;;;;;24.90;32.40;;;;;;5071967;28;19963;-89
2022/11/08 13:03:53;;;;;;;;;;;25.00;32.20;;;;;;5070483;28;19919;-89
2022/11/08 13:06:27;;;;;;;;;;;25.00;32.20;;;;;;5072377;28;19952;-87
2022/11/08 13:08:55;;;;;;;;;;;25.00;32.40;;;;;;5067022;28;19913;-87
2022/11/08 13:11:27;;;;;;;;;;;24.80;32.20;;;;;;5072457;28;19913;-89
2022/11/08 13:13:54;;;;;;;;;;;24.80;32.40;;;;;;5071987;28;19940;-88
2022/11/08 13:16:27;;;;;;;;;;;24.70;32.30;;;;;;5071350;28;20329;-88
2022/11/08 13:18:55;;;;;;;;;;;24.70;32.40;;;;;;5068890;28;20000;-87
2022/11/08 13:21:30;;;;;;;;;;;24.60;32.60;;;;;;5073558;28;19923;-88
2022/11/08 13:24:14;;;;;;;;;;;;;;;;;;;;;
2022/11/08 13:26:41;;;;;;;;;;;24.60;32.70;;;;;;5067255;28;19931;-88
2022/11/08 13:32:07;;;;;;;;;;;24.60;32.90;;;;;;5073220;28;19944;-89
2022/11/08 13:34:54;;;;;;;;;;;24.60;33.00;;;;;;5071390;28;19947;-90
2022/11/08 13:37:43;;;;;;;;;;;24.60;33.00;;;;;;5069617;28;20021;-89
2022/11/08 13:40:09;;;;;;;;;;;24.50;33.10;;;;;;5072725;28;19923;-90
2022/11/08 13:42:37;;;;;;;;;;;24.50;33.50;;;;;;5072788;28;19916;-89
2022/11/08 13:45:11;;;;;;;;;;;24.50;33.70;;;;;;5065026;28;19996;-86
2022/11/08 13:47:37;;;;;;;;;;;24.50;33.80;;;;;;5053665;28;19909;-89
2022/11/08 13:50:21;;;;;;;;;;;24.50;34.00;;;;;;5068995;28;20425;-89
2022/11/08 13:53:01;;;;;;;;;;;24.40;34.10;;;;;;5070736;28;20046;-89
2022/11/08 13:55:52;;;;;;;;;;;24.40;34.30;;;;;;5072743;28;19920;-88
2022/11/08 13:58:37;;;;;;;;;;;24.40;34.50;;;;;;5068103;28;19912;-88
2022/11/08 14:01:03;;;;;;;;;;;24.40;34.50;;;;;;5071986;28;19920;-90
2022/11/08 14:03:32;;;;;;;;;;;24.30;34.60;;;;;;5072643;28;19916;-87
2022/11/08 14:06:01;;;;;;;;;;;24.30;34.60;;;;;;5071179;28;19920;-89
2022/11/08 14:08:28;;;;;;;;;;;24.20;34.70;;;;;;5077607;28;20363;-89
2022/11/08 14:10:57;;;;;;;;;;;24.10;34.70;;;;;;5070740;28;19939;-89
2022/11/08 14:13:47;;;;;;;;;;;24.00;34.90;;;;;;5073725;28;19921;-88
2022/11/08 14:16:18;;;;;;;;;;;24.00;34.90;;;;;;5074095;28;20002;-89
2022/11/08 14:18:44;;;;;;;;;;;24.00;35.00;;;;;;5071702;28;20065;-86
2022/11/08 14:21:14;;;;;;;;;;;23.90;34.90;;;;;;5085513;28;19939;-88
2022/11/08 14:23:40;;;;;;;;;;;23.80;34.50;;;;;;5092195;28;20033;-88
2022/11/08 14:26:14;;;;;;;;;;;23.70;34.50;;;;;;5094521;28;20343;-89
2022/11/08 14:28:43;;;;;;;;;;;23.70;34.60;;;;;;5095701;28;19923;-88
2022/11/08 14:31:26;;;;;;;;;;;23.70;34.50;;;;;;5091899;28;20312;-87
2022/11/08 14:33:52;;;;;;;;;;;23.70;34.20;;;;;;5092602;28;19912;-91
2022/11/08 14:36:20;;;;;;;;;;;23.60;34.30;;;;;;5093355;28;20329;-88
2022/11/08 14:38:46;;;;;;;;;;;23.50;34.20;;;;;;5094017;28;20363;-89
2022/11/08 14:41:14;;;;;;;;;;;23.50;34.20;;;;;;5092003;28;19977;-90
2022/11/08 14:43:44;;;;;;;;;;;23.40;34.10;;;;;;5095232;28;19923;-88
2022/11/08 14:46:13;;;;;;;;;;;23.40;34.10;;;;;;5054728;28;19913;-88
2022/11/08 14:48:47;;;;;;;;;;;23.30;34.10;;;;;;5053803;28;19912;-88
2022/11/08 14:51:13;;;;;;;;;;;23.30;34.20;;;;;;5069614;28;19917;-87